Time;durP1;ratioP1;P1;durP2;ratioP2;P2;SDS_P1;SDS_P2;PMS_P1;PMS_P2;Temp;Humidity;BMP_temperature;BMP_pressure;BME280_temperature;BME280_humidity;BME280_pressure;Samples;Min_cycle;Max_cycle;Signal;HPM_P1;HPM_P2
2021/03/31 00:00:40;;;;;;;6.93;4.68;;;;;;;;;;5125931;27;20019;-58
2021/03/31 00:03:11;;;;;;;10.30;5.20;;;;;;;;;;5132118;27;20031;-57
2021/03/31 00:05:36;;;;;;;8.07;4.65;;;;;;;;;;5132730;27;20027;-57
2021/03/31 00:08:01;;;;;;;8.00;4.28;;;;;;;;;;5119963;27;20039;-58
2021/03/31 00:10:46;;;;;;;10.88;5.45;;;;;;;;;;5113685;28;20031;-58
2021/03/31 00:13:12;;;;;;;9.35;4.88;;;;;;;;;;5122525;27;20100;-57
2021/03/31 00:15:37;;;;;;;8.35;5.35;;;;;;;;;;5116410;27;20470;-58
2021/03/31 00:18:06;;;;;;;9.68;5.43;;;;;;;;;;5132643;27;20026;-58
2021/03/31 00:20:31;;;;;;;8.73;4.68;;;;;;;;;;5134289;27;20028;-58
2021/03/31 00:22:56;;;;;;;10.10;4.97;;;;;;;;;;5133047;27;20015;-58
2021/03/31 00:25:22;;;;;;;8.93;5.03;;;;;;;;;;5134195;27;20023;-58
2021/03/31 00:27:47;;;;;;;9.30;5.60;;;;;;;;;;5117076;27;20429;-58
2021/03/31 00:30:14;;;;;;;8.88;5.25;;;;;;;;;;5113553;28;20023;-58
2021/03/31 00:32:39;;;;;;;9.25;5.28;;;;;;;;;;5117254;27;20470;-59
2021/03/31 00:35:06;;;;;;;9.52;5.32;;;;;;;;;;5113572;28;20026;-57
2021/03/31 00:37:31;;;;;;;8.75;5.63;;;;;;;;;;5123330;27;20059;-59
2021/03/31 00:39:56;;;;;;;7.88;5.15;;;;;;;;;;5119516;27;20054;-59
2021/03/31 00:42:22;;;;;;;8.93;4.90;;;;;;;;;;5133082;27;20043;-59
2021/03/31 00:44:47;;;;;;;7.82;5.30;;;;;;;;;;5116948;27;20016;-59
2021/03/31 00:47:12;;;;;;;8.25;4.25;;;;;;;;;;5131960;27;20019;-58
2021/03/31 00:49:37;;;;;;;9.98;5.35;;;;;;;;;;5133307;27;20051;-59
2021/03/31 00:52:03;;;;;;;6.78;4.55;;;;;;;;;;5133997;27;20019;-59
2021/03/31 00:54:28;;;;;;;7.93;5.38;;;;;;;;;;5118128;27;20073;-58
2021/03/31 00:56:54;;;;;;;8.73;5.18;;;;;;;;;;5112090;28;20052;-58
2021/03/31 00:59:19;;;;;;;8.00;5.60;;;;;;;;;;5114274;27;20072;-58
2021/03/31 01:01:44;;;;;;;9.20;5.00;;;;;;;;;;5116340;27;20026;-59
2021/03/31 01:04:09;;;;;;;6.25;4.97;;;;;;;;;;5118169;27;20664;-58
2021/03/31 01:06:35;;;;;;;9.25;5.05;;;;;;;;;;5133358;27;20377;-58
2021/03/31 01:09:00;;;;;;;9.05;4.80;;;;;;;;;;5133860;27;20034;-58
2021/03/31 01:11:31;;;;;;;7.75;4.65;;;;;;;;;;5126362;27;20023;-58
2021/03/31 01:14:01;;;;;;;12.57;5.65;;;;;;;;;;5129666;28;20036;-59
2021/03/31 01:16:36;;;;;;;11.70;5.97;;;;;;;;;;5131803;27;20063;-59
2021/03/31 01:19:01;;;;;;;7.65;4.07;;;;;;;;;;5129848;27;20019;-59
2021/03/31 01:21:26;;;;;;;7.93;4.72;;;;;;;;;;5116688;27;20023;-58
2021/03/31 01:24:01;;;;;;;7.40;4.43;;;;;;;;;;5113583;28;20037;-58
2021/03/31 01:26:32;;;;;;;6.82;4.72;;;;;;;;;;5133416;28;20022;-56
2021/03/31 01:29:17;;;;;;;9.23;4.32;;;;;;;;;;5130168;27;20031;-57
2021/03/31 01:31:45;;;;;;;7.72;3.78;;;;;;;;;;5116865;28;20419;-57
2021/03/31 01:34:29;;;;;;;7.65;4.35;;;;;;;;;;5133270;28;20165;-58
2021/03/31 01:36:55;;;;;;;8.32;3.97;;;;;;;;;;5131687;28;20051;-58
2021/03/31 01:39:22;;;;;;;6.45;4.13;;;;;;;;;;5131836;27;20418;-58
2021/03/31 01:41:47;;;;;;;8.60;4.05;;;;;;;;;;5129736;28;20020;-58
2021/03/31 01:44:14;;;;;;;8.52;4.70;;;;;;;;;;5126443;27;20024;-55
2021/03/31 01:46:41;;;;;;;8.40;4.68;;;;;;;;;;5119762;28;20024;-58
2021/03/31 01:49:08;;;;;;;6.78;4.15;;;;;;;;;;5136932;27;20050;-56
2021/03/31 01:51:34;;;;;;;7.47;4.15;;;;;;;;;;5136885;27;20035;-58
2021/03/31 01:53:59;;;;;;;7.65;4.05;;;;;;;;;;5136659;27;20378;-58
2021/03/31 01:56:26;;;;;;;9.25;4.32;;;;;;;;;;5137105;27;20019;-58
2021/03/31 01:58:52;;;;;;;5.95;3.75;;;;;;;;;;5117491;27;20102;-57
2021/03/31 02:01:19;;;;;;;6.07;4.07;;;;;;;;;;5116547;28;20099;-58
2021/03/31 02:03:45;;;;;;;6.75;3.75;;;;;;;;;;5116625;27;20027;-58
2021/03/31 02:06:13;;;;;;;8.18;3.72;;;;;;;;;;5119596;27;20054;-58
2021/03/31 02:08:42;;;;;;;5.60;3.70;;;;;;;;;;5128365;27;20427;-56
2021/03/31 02:11:07;;;;;;;7.63;4.60;;;;;;;;;;5118301;27;20420;-58
2021/03/31 02:13:33;;;;;;;7.18;3.85;;;;;;;;;;5116631;27;20026;-58
2021/03/31 02:15:59;;;;;;;7.65;3.95;;;;;;;;;;5116425;27;20410;-58
2021/03/31 02:18:25;;;;;;;6.95;3.78;;;;;;;;;;5117722;27;20027;-58
2021/03/31 02:20:54;;;;;;;6.70;3.67;;;;;;;;;;5116022;28;20027;-58
2021/03/31 02:23:20;;;;;;;7.47;3.90;;;;;;;;;;5123344;27;20024;-58
2021/03/31 02:25:48;;;;;;;6.95;3.97;;;;;;;;;;5115922;28;20023;-58
2021/03/31 02:28:13;;;;;;;5.35;3.65;;;;;;;;;;5116472;27;20062;-58
2021/03/31 02:30:39;;;;;;;5.10;3.63;;;;;;;;;;5115796;28;20103;-57
2021/03/31 02:33:05;;;;;;;7.57;4.50;;;;;;;;;;5115959;28;20019;-58
2021/03/31 02:35:31;;;;;;;7.35;4.18;;;;;;;;;;5116285;28;20095;-58
2021/03/31 02:37:59;;;;;;;8.60;4.30;;;;;;;;;;5115861;28;20039;-58
2021/03/31 02:40:25;;;;;;;7.28;4.25;;;;;;;;;;5115681;27;20073;-57
2021/03/31 02:42:51;;;;;;;5.05;3.30;;;;;;;;;;5120967;27;20015;-58
2021/03/31 02:45:17;;;;;;;7.72;4.05;;;;;;;;;;5132828;27;20449;-57
2021/03/31 02:47:43;;;;;;;8.77;4.63;;;;;;;;;;5115549;27;20047;-58
2021/03/31 02:50:11;;;;;;;6.75;4.18;;;;;;;;;;5122480;27;20046;-57
2021/03/31 02:52:37;;;;;;;8.70;4.30;;;;;;;;;;5115552;28;20034;-58
2021/03/31 02:55:02;;;;;;;5.53;4.13;;;;;;;;;;5128189;27;20099;-57
2021/03/31 02:57:28;;;;;;;6.38;3.95;;;;;;;;;;5122819;27;20110;-58
2021/03/31 02:59:53;;;;;;;5.85;4.15;;;;;;;;;;5114243;28;20027;-58
2021/03/31 03:02:19;;;;;;;5.95;3.80;;;;;;;;;;5116498;27;20051;-58
2021/03/31 03:04:48;;;;;;;6.00;3.60;;;;;;;;;;5115504;28;20030;-57
2021/03/31 03:07:13;;;;;;;5.82;3.95;;;;;;;;;;5133031;27;20015;-59
2021/03/31 03:09:39;;;;;;;6.63;3.85;;;;;;;;;;5135573;27;20022;-58
2021/03/31 03:12:06;;;;;;;8.55;4.15;;;;;;;;;;5135534;27;20514;-58
2021/03/31 03:14:32;;;;;;;7.45;4.03;;;;;;;;;;5135132;27;20019;-58
2021/03/31 03:16:57;;;;;;;8.10;4.80;;;;;;;;;;5121420;27;20084;-59
2021/03/31 03:19:22;;;;;;;7.93;4.20;;;;;;;;;;5115025;28;20415;-58
2021/03/31 03:21:49;;;;;;;6.80;3.70;;;;;;;;;;5131221;27;20011;-59
2021/03/31 03:24:15;;;;;;;6.78;3.90;;;;;;;;;;5131348;27;20496;-58
2021/03/31 03:26:40;;;;;;;8.50;4.10;;;;;;;;;;5125225;27;20023;-58
2021/03/31 03:29:09;;;;;;;8.20;4.03;;;;;;;;;;5131816;27;20015;-59
2021/03/31 03:31:35;;;;;;;6.03;3.55;;;;;;;;;;5114852;28;20064;-59
2021/03/31 03:34:00;;;;;;;5.82;3.72;;;;;;;;;;5113469;28;20489;-57
2021/03/31 03:36:26;;;;;;;7.57;3.70;;;;;;;;;;5114734;27;20099;-57
2021/03/31 03:38:51;;;;;;;7.60;3.17;;;;;;;;;;5114771;28;20428;-58
2021/03/31 03:41:17;;;;;;;7.40;3.65;;;;;;;;;;5114257;28;20016;-58
2021/03/31 03:43:42;;;;;;;6.95;3.28;;;;;;;;;;5114934;27;20012;-57
2021/03/31 03:46:08;;;;;;;5.38;3.05;;;;;;;;;;5114683;28;20431;-57
2021/03/31 03:48:33;;;;;;;5.55;3.20;;;;;;;;;;5114617;28;20019;-57
2021/03/31 03:50:59;;;;;;;6.45;3.45;;;;;;;;;;5127555;27;20474;-58
2021/03/31 03:53:28;;;;;;;5.60;3.10;;;;;;;;;;5128379;27;20037;-57
2021/03/31 03:55:54;;;;;;;6.90;3.00;;;;;;;;;;5119329;27;20015;-58
2021/03/31 03:58:19;;;;;;;5.47;3.08;;;;;;;;;;5114341;28;20094;-57
2021/03/31 04:00:44;;;;;;;9.35;4.20;;;;;;;;;;5116438;27;20096;-57
2021/03/31 04:03:10;;;;;;;8.18;3.20;;;;;;;;;;5134765;27;20023;-58
2021/03/31 04:05:35;;;;;;;8.75;3.55;;;;;;;;;;5133975;27;20184;-58
2021/03/31 04:08:00;;;;;;;5.68;3.13;;;;;;;;;;5134780;27;20468;-58
2021/03/31 04:10:26;;;;;;;7.40;3.30;;;;;;;;;;5134040;27;20546;-58
2021/03/31 04:12:52;;;;;;;6.38;3.08;;;;;;;;;;5134512;27;20079;-58
2021/03/31 04:15:18;;;;;;;5.00;3.22;;;;;;;;;;5134199;27;20027;-58
2021/03/31 04:17:44;;;;;;;4.88;2.90;;;;;;;;;;5134365;27;20410;-57
2021/03/31 04:20:11;;;;;;;6.07;2.92;;;;;;;;;;5121887;27;20024;-58
2021/03/31 04:22:37;;;;;;;5.57;2.83;;;;;;;;;;5113884;28;20118;-58
2021/03/31 04:25:03;;;;;;;5.80;2.83;;;;;;;;;;5114150;27;20019;-58
2021/03/31 04:27:30;;;;;;;4.30;3.08;;;;;;;;;;5113965;27;20045;-58
2021/03/31 04:29:56;;;;;;;7.55;2.70;;;;;;;;;;5113632;28;20035;-58
2021/03/31 04:32:22;;;;;;;5.35;2.72;;;;;;;;;;5112226;28;20057;-58
2021/03/31 04:34:47;;;;;;;3.45;2.65;;;;;;;;;;5114979;27;20020;-59
2021/03/31 04:37:13;;;;;;;6.80;2.78;;;;;;;;;;5113483;28;20133;-58
2021/03/31 04:39:38;;;;;;;4.35;2.47;;;;;;;;;;5113405;28;20458;-58
2021/03/31 04:42:04;;;;;;;5.95;2.80;;;;;;;;;;5112287;28;20359;-58
2021/03/31 04:44:30;;;;;;;7.32;2.97;;;;;;;;;;5118731;27;20446;-59
2021/03/31 04:46:55;;;;;;;5.32;2.75;;;;;;;;;;5134219;27;20020;-58
2021/03/31 04:49:20;;;;;;;5.80;3.00;;;;;;;;;;5129930;27;20019;-57
2021/03/31 04:51:45;;;;;;;6.07;3.15;;;;;;;;;;5126590;27;20028;-58
2021/03/31 04:54:10;;;;;;;5.32;2.90;;;;;;;;;;5116757;28;20023;-58
2021/03/31 04:56:36;;;;;;;7.95;3.10;;;;;;;;;;5113514;28;20019;-58
2021/03/31 04:59:01;;;;;;;4.18;2.80;;;;;;;;;;5113771;28;20023;-58
2021/03/31 05:01:26;;;;;;;7.32;3.22;;;;;;;;;;5113495;28;20044;-58
2021/03/31 05:03:51;;;;;;;5.80;3.10;;;;;;;;;;5122764;27;20019;-57
2021/03/31 05:06:16;;;;;;;5.63;2.85;;;;;;;;;;5123081;27;20023;-56
2021/03/31 05:08:42;;;;;;;6.60;2.83;;;;;;;;;;5112260;28;20031;-57
2021/03/31 05:11:07;;;;;;;9.80;3.92;;;;;;;;;;5113067;28;20022;-57
2021/03/31 05:13:32;;;;;;;10.35;3.92;;;;;;;;;;5118066;28;20051;-58
2021/03/31 05:15:57;;;;;;;9.45;3.60;;;;;;;;;;5113834;28;20057;-59
2021/03/31 05:18:22;;;;;;;7.10;3.42;;;;;;;;;;5123947;28;20054;-59
2021/03/31 05:20:48;;;;;;;6.82;3.42;;;;;;;;;;5124226;28;20022;-59
2021/03/31 05:23:13;;;;;;;11.60;4.45;;;;;;;;;;5123412;27;20072;-59
2021/03/31 05:25:39;;;;;;;13.23;4.68;;;;;;;;;;5133821;27;20019;-58
2021/03/31 05:28:05;;;;;;;9.07;5.10;;;;;;;;;;5138568;27;20023;-58
2021/03/31 05:30:30;;;;;;;11.95;5.13;;;;;;;;;;5136232;27;20363;-59
2021/03/31 05:32:55;;;;;;;13.95;7.00;;;;;;;;;;5137199;27;20030;-58
2021/03/31 05:35:20;;;;;;;15.43;6.07;;;;;;;;;;5129998;27;20057;-60
2021/03/31 05:37:46;;;;;;;12.52;5.93;;;;;;;;;;5135356;27;20079;-58
2021/03/31 05:40:12;;;;;;;15.77;6.75;;;;;;;;;;5128065;27;20028;-59
2021/03/31 05:42:38;;;;;;;12.15;6.68;;;;;;;;;;5117140;27;20020;-60
2021/03/31 05:45:07;;;;;;;16.15;8.43;;;;;;;;;;5117376;28;20020;-59
2021/03/31 05:47:36;;;;;;;12.57;6.68;;;;;;;;;;5117349;27;20512;-59
2021/03/31 05:50:06;;;;;;;9.50;5.40;;;;;;;;;;5119069;27;20056;-59
2021/03/31 05:52:31;;;;;;;11.70;4.65;;;;;;;;;;5127422;27;20039;-58
2021/03/31 05:54:56;;;;;;;8.85;4.30;;;;;;;;;;5135124;27;20090;-57
2021/03/31 05:57:23;;;;;;;7.28;3.85;;;;;;;;;;5135062;27;20023;-58
2021/03/31 05:59:51;;;;;;;11.23;4.28;;;;;;;;;;5119610;27;20026;-58
2021/03/31 06:02:16;;;;;;;12.82;4.95;;;;;;;;;;5135162;27;20102;-58
2021/03/31 06:04:43;;;;;;;13.30;5.53;;;;;;;;;;5136244;27;20090;-58
2021/03/31 06:07:08;;;;;;;11.52;4.10;;;;;;;;;;5137524;27;20027;-58
2021/03/31 06:09:33;;;;;;;17.45;4.00;;;;;;;;;;5130376;27;20011;-58
2021/03/31 06:11:59;;;;;;;11.65;4.47;;;;;;;;;;5135614;27;20102;-58
2021/03/31 06:14:36;;;;;;;7.53;4.32;;;;;;;;;;5135839;27;20109;-57
2021/03/31 06:17:13;;;;;;;10.48;4.05;;;;;;;;;;5133793;27;20091;-58
2021/03/31 06:19:38;;;;;;;11.52;4.93;;;;;;;;;;5116490;27;20110;-58
2021/03/31 06:24:57;;;;;;;11.52;4.40;;;;;;;;;;5135060;27;20033;-58
2021/03/31 06:27:27;;;;;;;14.60;4.78;;;;;;;;;;5125054;27;20027;-57
2021/03/31 06:30:05;;;;;;;10.18;4.63;;;;;;;;;;5136682;27;20054;-58
2021/03/31 06:32:40;;;;;;;15.50;4.80;;;;;;;;;;5135209;27;20019;-58
2021/03/31 06:35:06;;;;;;;;;;;;;;;;;;5126114;27;20023;-58
2021/03/31 06:37:37;;;;;;;12.90;5.03;;;;;;;;;;5116647;27;20347;-58
2021/03/31 06:40:04;;;;;;;11.13;4.70;;;;;;;;;;5115984;28;20026;-58
2021/03/31 06:42:38;;;;;;;13.95;4.55;;;;;;;;;;5116074;28;20007;-56
2021/03/31 06:45:11;;;;;;;15.18;4.38;;;;;;;;;;5116401;28;20100;-57
2021/03/31 06:48:00;;;;;;;11.50;4.63;;;;;;;;;;5116124;28;20038;-59
2021/03/31 06:50:26;;;;;;;14.27;4.32;;;;;;;;;;5122539;27;20092;-59
2021/03/31 06:52:55;;;;;;;12.75;3.78;;;;;;;;;;5131058;27;20031;-60
2021/03/31 06:55:21;;;;;;;13.30;4.30;;;;;;;;;;5136204;27;20019;-59
2021/03/31 06:57:50;;;;;;;11.52;4.15;;;;;;;;;;5126533;27;20103;-59
2021/03/31 07:00:16;;;;;;;8.57;3.97;;;;;;;;;;5136092;27;20038;-59
2021/03/31 07:02:43;;;;;;;12.45;4.05;;;;;;;;;;5136339;27;20027;-58
2021/03/31 07:05:08;;;;;;;8.55;4.15;;;;;;;;;;5126941;27;20485;-59
2021/03/31 07:07:35;;;;;;;5.82;3.53;;;;;;;;;;5116698;27;20035;-59
2021/03/31 07:10:03;;;;;;;8.55;3.80;;;;;;;;;;5119295;27;20023;-59
2021/03/31 07:12:35;;;;;;;8.27;3.50;;;;;;;;;;5130440;27;20024;-59
2021/03/31 07:15:00;;;;;;;10.93;4.45;;;;;;;;;;5125006;27;20110;-59
2021/03/31 07:17:26;;;;;;;7.85;4.10;;;;;;;;;;5134631;27;20471;-59
2021/03/31 07:19:53;;;;;;;6.50;4.10;;;;;;;;;;5130906;27;20027;-58
2021/03/31 07:22:18;;;;;;;9.63;4.70;;;;;;;;;;5132124;27;20051;-60
2021/03/31 07:24:44;;;;;;;9.45;4.07;;;;;;;;;;5126014;27;20024;-59
2021/03/31 07:27:10;;;;;;;8.00;4.72;;;;;;;;;;5121278;27;20047;-61
2021/03/31 07:29:36;;;;;;;10.15;4.45;;;;;;;;;;5125024;27;20027;-59
2021/03/31 07:32:02;;;;;;;9.30;3.95;;;;;;;;;;5115073;28;20020;-59
2021/03/31 07:34:29;;;;;;;11.43;3.45;;;;;;;;;;5114791;28;20106;-59
2021/03/31 07:36:55;;;;;;;7.38;3.80;;;;;;;;;;5123840;27;20022;-59
2021/03/31 07:39:23;;;;;;;8.60;3.67;;;;;;;;;;5135213;27;20019;-59
2021/03/31 07:41:49;;;;;;;10.05;4.45;;;;;;;;;;5134862;27;20023;-61
2021/03/31 07:44:20;;;;;;;6.65;3.67;;;;;;;;;;5118883;27;20102;-59
2021/03/31 07:46:46;;;;;;;9.25;3.33;;;;;;;;;;5114065;28;20106;-59
2021/03/31 07:49:12;;;;;;;4.65;2.83;;;;;;;;;;5115304;27;20032;-58
2021/03/31 07:51:52;;;;;;;9.20;3.72;;;;;;;;;;5119005;27;20053;-58
2021/03/31 07:54:17;;;;;;;9.65;3.67;;;;;;;;;;5118379;27;20103;-58
2021/03/31 07:56:43;;;;;;;6.65;3.38;;;;;;;;;;5126077;27;20074;-59
2021/03/31 07:59:10;;;;;;;6.53;3.00;;;;;;;;;;5133110;27;20538;-58
2021/03/31 08:01:37;;;;;;;10.32;3.45;;;;;;;;;;5114950;27;20478;-59
2021/03/31 08:04:03;;;;;;;8.05;3.30;;;;;;;;;;5114373;28;20069;-59
2021/03/31 08:06:32;;;;;;;6.32;3.95;;;;;;;;;;5114121;28;20031;-59
2021/03/31 08:08:58;;;;;;;8.77;4.25;;;;;;;;;;5128207;27;20046;-58
2021/03/31 08:11:38;;;;;;;10.35;3.53;;;;;;;;;;5133785;27;20023;-58
2021/03/31 08:14:13;;;;;;;7.50;3.83;;;;;;;;;;5129122;27;20079;-59
2021/03/31 08:16:41;;;;;;;9.02;3.55;;;;;;;;;;5133867;27;20039;-58
2021/03/31 08:19:32;;;;;;;8.30;3.55;;;;;;;;;;5134724;27;20019;-59
2021/03/31 08:22:17;;;;;;;6.18;3.15;;;;;;;;;;5130671;27;20076;-59
2021/03/31 08:24:46;;;;;;;6.35;3.63;;;;;;;;;;5131701;27;20531;-58
2021/03/31 08:27:13;;;;;;;6.50;3.75;;;;;;;;;;5122950;27;20035;-60
2021/03/31 08:29:42;;;;;;;10.73;3.85;;;;;;;;;;5133887;27;20019;-59
2021/03/31 08:32:08;;;;;;;8.65;3.58;;;;;;;;;;5121033;27;20019;-59
2021/03/31 08:34:33;;;;;;;9.50;3.78;;;;;;;;;;5116491;27;20530;-59
2021/03/31 08:37:00;;;;;;;6.82;3.53;;;;;;;;;;5119745;27;20011;-59
2021/03/31 08:39:25;;;;;;;7.18;3.80;;;;;;;;;;5133201;27;20015;-59
2021/03/31 08:41:52;;;;;;;7.90;3.53;;;;;;;;;;5133946;27;20423;-59
2021/03/31 08:44:21;;;;;;;7.72;3.55;;;;;;;;;;5134130;27;20019;-59
2021/03/31 08:46:46;;;;;;;6.88;3.50;;;;;;;;;;5115222;27;20378;-59
2021/03/31 08:49:30;;;;;;;7.25;3.00;;;;;;;;;;5123059;27;20027;-59
2021/03/31 08:51:57;;;;;;;7.95;3.70;;;;;;;;;;5133234;27;20482;-59
2021/03/31 08:54:43;;;;;;;7.28;3.60;;;;;;;;;;5125647;27;20027;-60
2021/03/31 08:57:28;;;;;;;5.47;3.42;;;;;;;;;;5132804;27;20023;-59
2021/03/31 08:59:58;;;;;;;5.75;2.78;;;;;;;;;;5133236;27;20031;-58
2021/03/31 09:02:24;;;;;;;7.32;3.47;;;;;;;;;;5134004;27;20054;-60
2021/03/31 09:04:50;;;;;;;10.13;3.35;;;;;;;;;;5133739;27;20086;-59
2021/03/31 09:07:16;;;;;;;13.68;3.90;;;;;;;;;;5132934;27;20039;-59
2021/03/31 09:09:41;;;;;;;5.53;3.55;;;;;;;;;;5132329;27;20111;-59
2021/03/31 09:12:08;;;;;;;4.85;3.00;;;;;;;;;;5133665;27;20019;-59
2021/03/31 09:14:35;;;;;;;8.68;3.33;;;;;;;;;;5119378;27;20026;-60
2021/03/31 09:17:01;;;;;;;4.90;2.65;;;;;;;;;;5131635;28;20072;-59
2021/03/31 09:19:28;;;;;;;6.10;2.60;;;;;;;;;;5132167;27;20093;-59
2021/03/31 09:21:53;;;;;;;8.02;3.58;;;;;;;;;;5127021;27;20090;-59
2021/03/31 09:24:27;;;;;;;6.72;3.00;;;;;;;;;;5131014;28;20111;-58
2021/03/31 09:27:03;;;;;;;7.43;3.05;;;;;;;;;;5113030;28;20051;-59
2021/03/31 09:29:29;;;;;;;6.25;3.10;;;;;;;;;;5113270;28;20481;-58
2021/03/31 09:31:55;;;;;;;4.90;2.55;;;;;;;;;;5125417;28;20081;-59
2021/03/31 09:34:20;;;;;;;3.08;2.58;;;;;;;;;;5132325;27;20011;-60
2021/03/31 09:37:04;;;;;;;5.25;2.70;;;;;;;;;;5129473;27;20031;-58
2021/03/31 09:39:39;;;;;;;6.20;3.53;;;;;;;;;;5122964;28;20016;-59
2021/03/31 09:42:04;;;;;;;6.22;3.47;;;;;;;;;;5133134;27;20087;-59
2021/03/31 09:44:30;;;;;;;4.97;3.22;;;;;;;;;;5126748;27;20459;-59
2021/03/31 09:46:56;;;;;;;6.05;2.90;;;;;;;;;;5116463;28;20103;-59
2021/03/31 09:49:21;;;;;;;4.55;3.28;;;;;;;;;;5113014;28;20463;-59
2021/03/31 09:51:47;;;;;;;6.20;2.00;;;;;;;;;;5118541;28;20054;-59
2021/03/31 09:54:12;;;;;;;4.88;2.75;;;;;;;;;;5113369;28;20031;-59
2021/03/31 09:56:37;;;;;;;3.33;2.60;;;;;;;;;;5121248;28;20379;-59
2021/03/31 09:59:03;;;;;;;5.95;2.80;;;;;;;;;;5112290;28;20045;-59
2021/03/31 10:01:28;;;;;;;5.05;2.35;;;;;;;;;;5112535;28;20023;-59
2021/03/31 10:03:55;;;;;;;5.32;2.80;;;;;;;;;;5113029;28;20023;-59
2021/03/31 10:06:25;;;;;;;3.97;3.00;;;;;;;;;;5117470;28;20479;-58
2021/03/31 10:08:51;;;;;;;4.35;2.47;;;;;;;;;;5114776;28;20061;-58
2021/03/31 10:11:29;;;;;;;3.50;2.58;;;;;;;;;;5116457;27;20077;-59
2021/03/31 10:13:54;;;;;;;6.18;3.05;;;;;;;;;;5134099;27;20050;-58
2021/03/31 10:16:19;;;;;;;7.50;3.65;;;;;;;;;;5134700;27;20027;-59
2021/03/31 10:18:45;;;;;;;4.85;2.10;;;;;;;;;;5135791;27;20027;-59
2021/03/31 10:21:10;;;;;;;5.57;3.28;;;;;;;;;;5136170;27;20103;-59
2021/03/31 10:23:36;;;;;;;6.95;3.58;;;;;;;;;;5121838;27;20015;-58
2021/03/31 10:26:18;;;;;;;5.07;2.70;;;;;;;;;;5136842;27;20026;-59
2021/03/31 10:28:44;;;;;;;4.65;2.92;;;;;;;;;;5136664;27;20023;-58
2021/03/31 10:31:26;;;;;;;5.03;3.22;;;;;;;;;;5136918;27;20022;-58
2021/03/31 10:33:52;;;;;;;4.13;2.55;;;;;;;;;;5132787;27;20165;-59
2021/03/31 10:36:33;;;;;;;5.70;3.25;;;;;;;;;;5130304;27;20470;-59
2021/03/31 10:48:03;;;;;;;4.10;2.47;;;;;;;;;;5090456;28;20083;-59
2021/03/31 10:50:04;;;;;;;3.92;2.60;;;;;;;;;;5092175;28;20549;-59
2021/03/31 10:52:33;;;;;;;3.75;1.92;;;;;;;;;;5092865;28;20024;-59
2021/03/31 10:54:58;;;;;;;5.13;3.63;;;;;;;;;;5092960;28;20047;-59
2021/03/31 10:57:23;;;;;;;5.20;3.07;;;;;;;;;;5072997;28;20048;-59
2021/03/31 10:59:48;;;;;;;3.97;3.23;;;;;;;;;;5072751;28;20345;-59
2021/03/31 11:02:14;;;;;;;5.93;3.20;;;;;;;;;;5090824;28;20393;-59
2021/03/31 11:04:39;;;;;;;5.28;3.17;;;;;;;;;;5092031;28;20020;-58
2021/03/31 11:07:04;;;;;;;5.40;3.58;;;;;;;;;;5092467;28;20031;-59
2021/03/31 11:09:30;;;;;;;4.15;1.67;;;;;;;;;;5092704;28;20067;-59
2021/03/31 11:11:56;;;;;;;3.97;3.25;;;;;;;;;;5091854;28;20434;-59
2021/03/31 11:14:21;;;;;;;5.43;2.97;;;;;;;;;;5092324;28;20043;-59
2021/03/31 11:16:53;;;;;;;4.93;3.05;;;;;;;;;;5123876;27;20027;-60
2021/03/31 11:27:07;;;;;;;5.25;2.97;;;;;;;;;;5135710;27;20501;-60
2021/03/31 11:29:32;;;;;;;6.87;3.20;;;;;;;;;;5135873;27;20020;-60
2021/03/31 11:31:57;;;;;;;4.20;3.10;;;;;;;;;;5135183;27;20713;-60
2021/03/31 11:34:22;;;;;;;5.47;3.33;;;;;;;;;;5117922;27;20019;-59
2021/03/31 11:36:50;;;;;;;5.70;3.60;;;;;;;;;;5121045;27;20026;-59
2021/03/31 11:39:16;;;;;;;6.38;3.60;;;;;;;;;;5134748;27;20261;-58
2021/03/31 11:41:41;;;;;;;5.35;2.88;;;;;;;;;;5134886;27;20023;-59
2021/03/31 11:44:07;;;;;;;3.30;3.00;;;;;;;;;;5135498;27;20019;-59
2021/03/31 11:46:32;;;;;;;6.57;2.60;;;;;;;;;;5127033;27;20026;-59
2021/03/31 11:48:57;;;;;;;3.97;2.80;;;;;;;;;;5125377;27;20038;-57
2021/03/31 11:51:23;;;;;;;5.13;2.80;;;;;;;;;;5118613;27;20071;-58
2021/03/31 11:53:48;;;;;;;3.10;2.75;;;;;;;;;;5133347;27;20339;-58
2021/03/31 11:56:14;;;;;;;4.07;2.60;;;;;;;;;;5135171;27;20050;-59
2021/03/31 11:58:40;;;;;;;4.63;2.97;;;;;;;;;;5134480;27;20011;-59
2021/03/31 12:01:06;;;;;;;4.30;2.92;;;;;;;;;;5120230;27;20205;-59
2021/03/31 12:03:31;;;;;;;5.50;2.90;;;;;;;;;;5124606;27;20047;-59
2021/03/31 12:05:56;;;;;;;3.97;2.77;;;;;;;;;;5115377;27;20265;-58
2021/03/31 12:08:22;;;;;;;6.77;3.00;;;;;;;;;;5127868;27;20750;-58
2021/03/31 12:10:47;;;;;;;3.67;2.63;;;;;;;;;;5132125;27;20730;-58
2021/03/31 12:13:12;;;;;;;3.80;3.08;;;;;;;;;;5135021;27;20079;-57
2021/03/31 12:15:38;;;;;;;5.18;3.38;;;;;;;;;;5132892;27;20015;-58
2021/03/31 12:18:03;;;;;;;4.83;3.03;;;;;;;;;;5131972;27;20101;-57
2021/03/31 12:20:28;;;;;;;4.32;2.83;;;;;;;;;;5122024;27;20020;-56
2021/03/31 12:22:54;;;;;;;4.50;2.72;;;;;;;;;;5124002;27;20024;-57
2021/03/31 12:25:20;;;;;;;3.45;3.08;;;;;;;;;;5122437;27;20081;-56
2021/03/31 12:27:47;;;;;;;4.82;3.53;;;;;;;;;;5119877;27;20098;-56
2021/03/31 12:30:14;;;;;;;4.32;2.80;;;;;;;;;;5133686;27;20080;-57
2021/03/31 12:32:39;;;;;;;6.25;2.92;;;;;;;;;;5133994;27;20019;-58
2021/03/31 12:35:05;;;;;;;4.13;3.35;;;;;;;;;;5134288;27;20462;-58
2021/03/31 12:37:30;;;;;;;4.57;3.30;;;;;;;;;;5134047;27;20019;-56
2021/03/31 12:39:56;;;;;;;4.00;2.60;;;;;;;;;;5132735;27;20497;-58
2021/03/31 12:42:22;;;;;;;3.78;3.20;;;;;;;;;;5134292;27;20246;-57
2021/03/31 12:44:47;;;;;;;5.72;3.47;;;;;;;;;;5133419;27;20064;-58
2021/03/31 12:47:17;;;;;;;5.65;3.80;;;;;;;;;;5133912;27;20015;-57
2021/03/31 12:49:42;;;;;;;7.57;3.45;;;;;;;;;;5129476;27;20042;-59
2021/03/31 12:52:11;;;;;;;4.07;3.63;;;;;;;;;;5113518;27;20019;-58
2021/03/31 12:57:03;;;;;;;4.63;3.20;;;;;;;;;;5113299;28;20012;-58
2021/03/31 12:59:28;;;;;;;4.78;3.60;;;;;;;;;;5113699;27;20269;-57
2021/03/31 13:01:53;;;;;;;4.50;3.40;;;;;;;;;;5120352;27;20019;-57
2021/03/31 13:04:20;;;;;;;4.20;3.30;;;;;;;;;;5130625;27;20019;-57
2021/03/31 13:06:45;;;;;;;4.93;4.22;;;;;;;;;;5122945;27;20027;-55
2021/03/31 13:09:10;;;;;;;3.88;3.20;;;;;;;;;;5129193;27;20080;-58
2021/03/31 13:11:36;;;;;;;4.88;3.10;;;;;;;;;;5117992;27;20359;-58
2021/03/31 13:16:57;;;;;;;4.13;3.30;;;;;;;;;;5133361;27;20023;-58
2021/03/31 13:32:31;;;;;;;5.93;3.60;;;;;;;;;;5070419;28;20052;-57
2021/03/31 13:35:05;;;;;;;4.95;3.75;;;;;;;;;;5082433;28;20095;-57
2021/03/31 13:37:36;;;;;;;6.47;4.07;;;;;;;;;;5090344;28;20032;-56
2021/03/31 13:40:04;;;;;;;5.63;3.95;;;;;;;;;;5089704;28;20020;-56
2021/03/31 13:42:29;;;;;;;4.80;4.40;;;;;;;;;;5073731;28;20070;-57
2021/03/31 13:44:55;;;;;;;5.95;5.03;;;;;;;;;;5094478;28;20471;-57
2021/03/31 13:47:23;;;;;;;5.43;4.50;;;;;;;;;;5094015;28;20556;-56
2021/03/31 13:49:52;;;;;;;6.97;4.28;;;;;;;;;;5093429;28;20135;-56
2021/03/31 13:54:54;;;;;;;5.40;3.50;;;;;;;;;;5094496;28;20471;-57
2021/03/31 13:57:22;;;;;;;4.32;3.47;;;;;;;;;;5093127;28;20036;-57
2021/03/31 13:59:47;;;;;;;4.28;3.53;;;;;;;;;;5093174;28;20012;-58
2021/03/31 14:02:12;;;;;;;3.87;3.30;;;;;;;;;;5093453;28;20023;-56
2021/03/31 14:04:38;;;;;;;5.20;3.97;;;;;;;;;;5112115;27;20364;-57
2021/03/31 14:07:03;;;;;;;5.47;3.55;;;;;;;;;;5131725;27;20019;-57
2021/03/31 14:09:29;;;;;;;5.68;3.72;;;;;;;;;;5123434;27;20458;-58
2021/03/31 14:11:54;;;;;;;4.83;3.10;;;;;;;;;;5118519;27;20023;-57
2021/03/31 14:14:19;;;;;;;6.45;4.03;;;;;;;;;;5122766;27;20276;-58
2021/03/31 14:17:27;;;;;;;6.00;3.67;;;;;;;;;;5128368;27;20037;-58
2021/03/31 14:19:43;;;;;;;7.72;3.67;;;;;;;;;;5111365;27;20039;-57
2021/03/31 14:22:08;;;;;;;5.97;3.42;;;;;;;;;;5126040;27;20102;-58
2021/03/31 14:24:35;;;;;;;5.82;3.60;;;;;;;;;;5129779;27;20148;-58
2021/03/31 14:27:00;;;;;;;6.05;3.45;;;;;;;;;;5129799;27;20403;-57
2021/03/31 14:29:25;;;;;;;4.65;3.05;;;;;;;;;;5123663;27;20030;-58
2021/03/31 14:31:51;;;;;;;4.53;3.33;;;;;;;;;;5130271;27;20441;-59
2021/03/31 14:34:16;;;;;;;6.53;4.80;;;;;;;;;;5131029;27;20107;-59
2021/03/31 14:36:41;;;;;;;6.35;5.15;;;;;;;;;;5128814;27;20050;-59
2021/03/31 14:39:12;;;;;;;8.00;5.25;;;;;;;;;;5129836;27;20020;-59
2021/03/31 14:41:37;;;;;;;6.40;5.18;;;;;;;;;;5135718;27;20068;-58
2021/03/31 14:44:03;;;;;;;6.10;5.15;;;;;;;;;;5120938;27;20559;-57
2021/03/31 14:46:28;;;;;;;10.23;5.78;;;;;;;;;;5125061;27;20118;-57
2021/03/31 14:48:54;;;;;;;7.00;5.95;;;;;;;;;;5118881;27;20027;-58
2021/03/31 14:51:33;;;;;;;7.28;5.32;;;;;;;;;;5123558;27;20051;-58
2021/03/31 15:01:54;;;;;;;;;;;;;;;;;;5125753;27;20016;-58
2021/03/31 15:04:19;;;;;;;6.47;4.88;;;;;;;;;;5127134;27;19914;-58
2021/03/31 15:06:44;;;;;;;8.53;5.23;;;;;;;;;;5128898;27;20027;-57
2021/03/31 15:09:09;;;;;;;5.97;5.32;;;;;;;;;;5126636;27;20023;-58
2021/03/31 15:11:35;;;;;;;8.52;5.25;;;;;;;;;;5123108;27;20092;-59
2021/03/31 15:14:00;;;;;;;8.32;5.70;;;;;;;;;;5116181;27;20105;-58
2021/03/31 15:16:25;;;;;;;7.00;4.95;;;;;;;;;;5135226;27;20359;-60
2021/03/31 15:18:51;;;;;;;7.13;4.90;;;;;;;;;;5135138;27;20043;-58
2021/03/31 15:23:50;;;;;;;8.80;5.75;;;;;;;;;;5117622;27;20521;-58
2021/03/31 15:26:15;;;;;;;6.13;4.50;;;;;;;;;;5117952;27;20481;-59
2021/03/31 15:28:40;;;;;;;8.00;5.90;;;;;;;;;;5121883;27;20018;-59
2021/03/31 15:31:06;;;;;;;6.40;4.78;;;;;;;;;;5133436;27;20489;-59